sensor_id;sensor_type;location;lat;lon;timestamp;pressure;altitude;pressure_sealevel;temperature;humidity
12973;BME280;6551;51.056;9.466;2023-12-04T00:01:22;97760.81;;;1.06;65.58
12973;BME280;6551;51.056;9.466;2023-12-04T00:03:48;97756.72;;;1.12;64.71
12973;BME280;6551;51.056;9.466;2023-12-04T00:06:13;97749.88;;;1.11;64.72
12973;BME280;6551;51.056;9.466;2023-12-04T00:08:40;97728.25;;;1.25;64.83
12973;BME280;6551;51.056;9.466;2023-12-04T00:11:06;97721.56;;;1.31;64.48
12973;BME280;6551;51.056;9.466;2023-12-04T00:13:32;97725.00;;;1.31;64.35
12973;BME280;6551;51.056;9.466;2023-12-04T00:15:58;97708.00;;;1.43;63.98
12973;BME280;6551;51.056;9.466;2023-12-04T00:18:24;97712.41;;;1.35;63.95
12973;BME280;6551;51.056;9.466;2023-12-04T00:20:50;97699.41;;;1.25;64.21
12973;BME280;6551;51.056;9.466;2023-12-04T00:23:16;97696.47;;;1.28;64.16
12973;BME280;6551;51.056;9.466;2023-12-04T00:25:41;97693.38;;;1.25;64.52
12973;BME280;6551;51.056;9.466;2023-12-04T00:28:07;97702.38;;;1.22;64.42
12973;BME280;6551;51.056;9.466;2023-12-04T00:30:33;97686.97;;;1.19;64.51
12973;BME280;6551;51.056;9.466;2023-12-04T00:32:59;97676.00;;;1.24;64.74
12973;BME280;6551;51.056;9.466;2023-12-04T00:35:24;97667.78;;;1.10;64.76
12973;BME280;6551;51.056;9.466;2023-12-04T00:37:50;97666.31;;;1.16;64.59
12973;BME280;6551;51.056;9.466;2023-12-04T00:40:16;97673.66;;;1.12;63.92
12973;BME280;6551;51.056;9.466;2023-12-04T00:42:41;97668.41;;;1.12;63.88
12973;BME280;6551;51.056;9.466;2023-12-04T00:45:08;97659.59;;;1.13;64.24
12973;BME280;6551;51.056;9.466;2023-12-04T00:47:33;97663.38;;;1.19;64.42
12973;BME280;6551;51.056;9.466;2023-12-04T00:49:59;97647.97;;;1.16;64.78
12973;BME280;6551;51.056;9.466;2023-12-04T00:52:25;97662.19;;;1.05;65.28
12973;BME280;6551;51.056;9.466;2023-12-04T00:54:50;97654.31;;;1.05;65.57
12973;BME280;6551;51.056;9.466;2023-12-04T00:57:16;97653.16;;;1.00;65.68
12973;BME280;6551;51.056;9.466;2023-12-04T00:59:42;97662.50;;;1.02;65.96
12973;BME280;6551;51.056;9.466;2023-12-04T01:02:08;97646.09;;;1.00;65.38
12973;BME280;6551;51.056;9.466;2023-12-04T01:04:33;97643.31;;;1.02;65.53
12973;BME280;6551;51.056;9.466;2023-12-04T01:06:59;97641.22;;;1.05;65.74
12973;BME280;6551;51.056;9.466;2023-12-04T01:09:25;97645.81;;;1.19;65.63
12973;BME280;6551;51.056;9.466;2023-12-04T01:11:54;97660.44;;;1.22;65.14
12973;BME280;6551;51.056;9.466;2023-12-04T01:14:20;97645.66;;;1.21;64.98
12973;BME280;6551;51.056;9.466;2023-12-04T01:16:46;97640.25;;;1.23;64.42
12973;BME280;6551;51.056;9.466;2023-12-04T01:19:12;97629.44;;;1.26;64.75
12973;BME280;6551;51.056;9.466;2023-12-04T01:21:38;97620.28;;;1.30;64.36
12973;BME280;6551;51.056;9.466;2023-12-04T01:24:04;97634.56;;;1.35;64.28
12973;BME280;6551;51.056;9.466;2023-12-04T01:26:30;97638.16;;;1.42;64.49
12973;BME280;6551;51.056;9.466;2023-12-04T01:28:55;97625.03;;;1.42;64.51
12973;BME280;6551;51.056;9.466;2023-12-04T01:31:21;97621.28;;;1.45;64.20
12973;BME280;6551;51.056;9.466;2023-12-04T01:33:47;97620.63;;;1.43;64.40
12973;BME280;6551;51.056;9.466;2023-12-04T01:36:13;97619.78;;;1.42;64.89
12973;BME280;6551;51.056;9.466;2023-12-04T01:38:38;97622.59;;;1.41;64.74
12973;BME280;6551;51.056;9.466;2023-12-04T01:41:05;97619.31;;;1.39;65.03
12973;BME280;6551;51.056;9.466;2023-12-04T01:43:31;97617.34;;;1.41;64.68
12973;BME280;6551;51.056;9.466;2023-12-04T01:45:57;97619.47;;;1.37;64.89
12973;BME280;6551;51.056;9.466;2023-12-04T01:48:25;97618.50;;;1.38;65.00
12973;BME280;6551;51.056;9.466;2023-12-04T01:50:52;97616.53;;;1.40;65.15
12973;BME280;6551;51.056;9.466;2023-12-04T01:53:19;97615.69;;;1.40;65.59
12973;BME280;6551;51.056;9.466;2023-12-04T01:55:45;97612.09;;;1.41;65.33
12973;BME280;6551;51.056;9.466;2023-12-04T01:58:11;97612.25;;;1.39;65.69
12973;BME280;6551;51.056;9.466;2023-12-04T02:00:37;97608.34;;;1.43;65.28
12973;BME280;6551;51.056;9.466;2023-12-04T02:03:03;97611.13;;;1.50;65.34
12973;BME280;6551;51.056;9.466;2023-12-04T02:05:29;97607.03;;;1.55;65.26
12973;BME280;6551;51.056;9.466;2023-12-04T02:07:56;97609.47;;;1.57;65.31
12973;BME280;6551;51.056;9.466;2023-12-04T02:10:22;97606.03;;;1.64;65.17
12973;BME280;6551;51.056;9.466;2023-12-04T02:12:52;97598.16;;;1.72;64.81
12973;BME280;6551;51.056;9.466;2023-12-04T02:15:17;97602.44;;;1.73;64.59
12973;BME280;6551;51.056;9.466;2023-12-04T02:17:44;97594.88;;;1.70;64.55
12973;BME280;6551;51.056;9.466;2023-12-04T02:20:13;97599.66;;;1.83;64.96
12973;BME280;6551;51.056;9.466;2023-12-04T02:22:39;97604.91;;;1.83;64.46
12973;BME280;6551;51.056;9.466;2023-12-04T02:25:06;97603.06;;;1.92;64.60
12973;BME280;6551;51.056;9.466;2023-12-04T02:27:40;97597.00;;;1.99;64.33
12973;BME280;6551;51.056;9.466;2023-12-04T02:30:12;97604.34;;;2.04;64.12
12973;BME280;6551;51.056;9.466;2023-12-04T02:32:47;97602.34;;;2.14;63.85
12973;BME280;6551;51.056;9.466;2023-12-04T02:35:16;97594.66;;;2.12;63.05
12973;BME280;6551;51.056;9.466;2023-12-04T02:37:45;97597.28;;;2.12;62.67
12973;BME280;6551;51.056;9.466;2023-12-04T02:40:12;97591.56;;;1.93;62.60
12973;BME280;6551;51.056;9.466;2023-12-04T02:42:39;97588.97;;;1.76;62.43
12973;BME280;6551;51.056;9.466;2023-12-04T02:45:05;97592.91;;;1.89;62.26
12973;BME280;6551;51.056;9.466;2023-12-04T02:47:31;97581.75;;;1.70;62.05
12973;BME280;6551;51.056;9.466;2023-12-04T02:49:57;97573.06;;;1.70;62.29
12973;BME280;6551;51.056;9.466;2023-12-04T02:52:23;97573.75;;;1.72;62.54
12973;BME280;6551;51.056;9.466;2023-12-04T02:54:49;97555.50;;;1.78;62.59
12973;BME280;6551;51.056;9.466;2023-12-04T02:57:14;97555.34;;;1.88;63.01
12973;BME280;6551;51.056;9.466;2023-12-04T02:59:40;97544.50;;;1.91;62.93
12973;BME280;6551;51.056;9.466;2023-12-04T03:02:06;97540.06;;;1.92;63.61
12973;BME280;6551;51.056;9.466;2023-12-04T03:04:32;97545.47;;;1.90;63.75
12973;BME280;6551;51.056;9.466;2023-12-04T03:06:57;97533.00;;;1.92;63.41
12973;BME280;6551;51.056;9.466;2023-12-04T03:09:23;97529.41;;;1.93;63.68
12973;BME280;6551;51.056;9.466;2023-12-04T03:11:49;97530.53;;;1.99;63.69
12973;BME280;6551;51.056;9.466;2023-12-04T03:14:15;97522.00;;;2.05;63.50
12973;BME280;6551;51.056;9.466;2023-12-04T03:16:40;97529.88;;;2.05;63.80
12973;BME280;6551;51.056;9.466;2023-12-04T03:19:06;97527.88;;;2.07;63.60
12973;BME280;6551;51.056;9.466;2023-12-04T03:21:32;97532.63;;;2.11;63.45
12973;BME280;6551;51.056;9.466;2023-12-04T03:23:57;97529.88;;;2.05;62.92
12973;BME280;6551;51.056;9.466;2023-12-04T03:26:23;97528.56;;;2.01;62.47
12973;BME280;6551;51.056;9.466;2023-12-04T03:28:49;97530.19;;;2.02;62.35
12973;BME280;6551;51.056;9.466;2023-12-04T03:31:15;97531.69;;;1.96;62.28
12973;BME280;6551;51.056;9.466;2023-12-04T03:33:40;97530.75;;;1.73;61.83
12973;BME280;6551;51.056;9.466;2023-12-04T03:36:07;97531.75;;;1.64;61.61
12973;BME280;6551;51.056;9.466;2023-12-04T03:38:32;97528.00;;;1.66;61.83
12973;BME280;6551;51.056;9.466;2023-12-04T03:40:58;97534.03;;;1.59;62.18
12973;BME280;6551;51.056;9.466;2023-12-04T03:43:24;97527.84;;;1.52;62.36
12973;BME280;6551;51.056;9.466;2023-12-04T03:45:49;97524.88;;;1.55;62.47
12973;BME280;6551;51.056;9.466;2023-12-04T03:48:15;97519.63;;;1.31;62.54
12973;BME280;6551;51.056;9.466;2023-12-04T03:50:41;97520.09;;;1.50;62.24
12973;BME280;6551;51.056;9.466;2023-12-04T03:53:06;97521.41;;;1.62;62.70
12973;BME280;6551;51.056;9.466;2023-12-04T03:55:32;97517.13;;;1.69;62.53
12973;BME280;6551;51.056;9.466;2023-12-04T03:57:59;97512.22;;;1.74;63.03
12973;BME280;6551;51.056;9.466;2023-12-04T04:00:25;97507.44;;;1.78;63.09
12973;BME280;6551;51.056;9.466;2023-12-04T04:02:50;97502.19;;;1.78;62.83
12973;BME280;6551;51.056;9.466;2023-12-04T04:05:16;97495.00;;;1.80;62.53
12973;BME280;6551;51.056;9.466;2023-12-04T04:07:42;97497.44;;;1.82;62.37
12973;BME280;6551;51.056;9.466;2023-12-04T04:10:08;97493.00;;;1.82;62.57
12973;BME280;6551;51.056;9.466;2023-12-04T04:12:34;97493.16;;;1.81;62.63
12973;BME280;6551;51.056;9.466;2023-12-04T04:15:00;97497.44;;;1.82;62.95
12973;BME280;6551;51.056;9.466;2023-12-04T04:17:26;97497.94;;;1.85;62.40
12973;BME280;6551;51.056;9.466;2023-12-04T04:19:52;97493.31;;;1.87;62.53
12973;BME280;6551;51.056;9.466;2023-12-04T04:22:19;97488.56;;;1.91;62.18
12973;BME280;6551;51.056;9.466;2023-12-04T04:24:46;97483.78;;;1.86;61.83
12973;BME280;6551;51.056;9.466;2023-12-04T04:27:11;97481.72;;;1.73;61.71
12973;BME280;6551;51.056;9.466;2023-12-04T04:29:37;97479.56;;;1.77;62.08
12973;BME280;6551;51.056;9.466;2023-12-04T04:32:03;97473.00;;;1.73;62.10
12973;BME280;6551;51.056;9.466;2023-12-04T04:34:29;97466.47;;;1.69;62.24
12973;BME280;6551;51.056;9.466;2023-12-04T04:36:55;97472.69;;;1.68;62.05
12973;BME280;6551;51.056;9.466;2023-12-04T04:39:20;97470.41;;;1.65;62.36
12973;BME280;6551;51.056;9.466;2023-12-04T04:41:46;97469.25;;;1.67;62.62
12973;BME280;6551;51.056;9.466;2023-12-04T04:44:12;97467.97;;;1.63;62.22
12973;BME280;6551;51.056;9.466;2023-12-04T04:46:38;97463.19;;;1.67;62.55
12973;BME280;6551;51.056;9.466;2023-12-04T04:49:03;97463.69;;;1.62;62.21
12973;BME280;6551;51.056;9.466;2023-12-04T04:51:32;97454.03;;;1.55;62.45
12973;BME280;6551;51.056;9.466;2023-12-04T04:54:02;97449.94;;;1.60;62.77
12973;BME280;6551;51.056;9.466;2023-12-04T04:56:29;97448.28;;;1.59;62.23
12973;BME280;6551;51.056;9.466;2023-12-04T04:58:55;97448.94;;;1.53;62.45
12973;BME280;6551;51.056;9.466;2023-12-04T05:01:22;97451.25;;;1.56;62.42
12973;BME280;6551;51.056;9.466;2023-12-04T05:03:47;97444.38;;;1.55;62.79
12973;BME280;6551;51.056;9.466;2023-12-04T05:06:14;97443.03;;;1.59;63.02
12973;BME280;6551;51.056;9.466;2023-12-04T05:08:39;97429.78;;;1.61;62.85
12973;BME280;6551;51.056;9.466;2023-12-04T05:11:05;97432.88;;;1.56;63.10
12973;BME280;6551;51.056;9.466;2023-12-04T05:13:31;97432.88;;;1.56;63.31
12973;BME280;6551;51.056;9.466;2023-12-04T05:15:57;97433.03;;;1.63;63.27
12973;BME280;6551;51.056;9.466;2023-12-04T05:18:22;97426.78;;;1.64;63.02
12973;BME280;6551;51.056;9.466;2023-12-04T05:20:48;97429.91;;;1.67;62.70
12973;BME280;6551;51.056;9.466;2023-12-04T05:23:14;97419.72;;;1.64;62.82
12973;BME280;6551;51.056;9.466;2023-12-04T05:25:39;97425.81;;;1.65;62.97
12973;BME280;6551;51.056;9.466;2023-12-04T05:28:05;97421.91;;;1.61;63.28
12973;BME280;6551;51.056;9.466;2023-12-04T05:30:31;97424.00;;;1.65;62.86
12973;BME280;6551;51.056;9.466;2023-12-04T05:32:56;97427.78;;;1.63;63.12
12973;BME280;6551;51.056;9.466;2023-12-04T05:35:22;97420.91;;;1.62;63.03
12973;BME280;6551;51.056;9.466;2023-12-04T05:37:48;97429.59;;;1.62;63.33
12973;BME280;6551;51.056;9.466;2023-12-04T05:40:14;97433.00;;;1.71;63.03
12973;BME280;6551;51.056;9.466;2023-12-04T05:42:40;97437.28;;;1.72;62.88
12973;BME280;6551;51.056;9.466;2023-12-04T05:45:06;97428.25;;;1.74;62.70
12973;BME280;6551;51.056;9.466;2023-12-04T05:47:33;97434.63;;;1.80;62.74
12973;BME280;6551;51.056;9.466;2023-12-04T05:50:00;97432.31;;;1.85;62.32
12973;BME280;6551;51.056;9.466;2023-12-04T05:52:26;97431.97;;;1.88;62.56
12973;BME280;6551;51.056;9.466;2023-12-04T05:54:52;97424.56;;;1.92;62.53
12973;BME280;6551;51.056;9.466;2023-12-04T05:57:17;97426.22;;;1.85;62.41
12973;BME280;6551;51.056;9.466;2023-12-04T05:59:43;97422.44;;;1.87;62.04
12973;BME280;6551;51.056;9.466;2023-12-04T06:02:09;97426.38;;;1.91;61.96
12973;BME280;6551;51.056;9.466;2023-12-04T06:04:35;97428.81;;;1.93;62.45
12973;BME280;6551;51.056;9.466;2023-12-04T06:07:00;97428.16;;;1.99;62.77
12973;BME280;6551;51.056;9.466;2023-12-04T06:09:26;97421.09;;;1.99;62.32
12973;BME280;6551;51.056;9.466;2023-12-04T06:11:52;97410.41;;;2.01;62.10
12973;BME280;6551;51.056;9.466;2023-12-04T06:14:18;97402.88;;;1.98;61.91
12973;BME280;6551;51.056;9.466;2023-12-04T06:16:43;97411.03;;;2.03;61.56
12973;BME280;6551;51.056;9.466;2023-12-04T06:19:09;97413.91;;;1.93;62.01
12973;BME280;6551;51.056;9.466;2023-12-04T06:21:35;97411.91;;;1.95;61.91
12973;BME280;6551;51.056;9.466;2023-12-04T06:24:01;97413.22;;;1.99;62.28
12973;BME280;6551;51.056;9.466;2023-12-04T06:26:27;97410.28;;;1.94;62.25
12973;BME280;6551;51.056;9.466;2023-12-04T06:28:53;97408.47;;;1.95;62.49
12973;BME280;6551;51.056;9.466;2023-12-04T06:31:19;97408.34;;;1.88;62.75
12973;BME280;6551;51.056;9.466;2023-12-04T06:33:45;97401.28;;;1.89;62.30
12973;BME280;6551;51.056;9.466;2023-12-04T06:36:12;97408.00;;;1.91;62.84
12973;BME280;6551;51.056;9.466;2023-12-04T06:38:40;97407.69;;;1.86;62.63
12973;BME280;6551;51.056;9.466;2023-12-04T06:41:08;97401.66;;;1.77;62.64
12973;BME280;6551;51.056;9.466;2023-12-04T06:43:34;97403.84;;;1.66;62.80
12973;BME280;6551;51.056;9.466;2023-12-04T06:46:00;97399.41;;;1.58;62.87
12973;BME280;6551;51.056;9.466;2023-12-04T06:48:26;97400.56;;;1.56;63.19
12973;BME280;6551;51.056;9.466;2023-12-04T06:50:53;97395.84;;;1.51;63.28
12973;BME280;6551;51.056;9.466;2023-12-04T06:53:18;97387.03;;;1.44;63.29
12973;BME280;6551;51.056;9.466;2023-12-04T06:55:44;97387.47;;;1.48;63.81
12973;BME280;6551;51.056;9.466;2023-12-04T06:58:10;97381.09;;;1.42;63.73
12973;BME280;6551;51.056;9.466;2023-12-04T07:00:35;97382.75;;;1.43;63.32
12973;BME280;6551;51.056;9.466;2023-12-04T07:03:01;97377.47;;;1.51;63.69
12973;BME280;6551;51.056;9.466;2023-12-04T07:05:27;97369.44;;;1.53;64.34
12973;BME280;6551;51.056;9.466;2023-12-04T07:07:53;97372.88;;;1.53;63.72
12973;BME280;6551;51.056;9.466;2023-12-04T07:10:19;97365.16;;;1.60;63.61
12973;BME280;6551;51.056;9.466;2023-12-04T07:12:45;97353.31;;;1.64;63.21
12973;BME280;6551;51.056;9.466;2023-12-04T07:15:11;97356.44;;;1.67;63.46
12973;BME280;6551;51.056;9.466;2023-12-04T07:17:38;97355.94;;;1.72;63.65
12973;BME280;6551;51.056;9.466;2023-12-04T07:20:04;97342.81;;;1.72;63.12
12973;BME280;6551;51.056;9.466;2023-12-04T07:22:32;97355.56;;;1.75;63.14
12973;BME280;6551;51.056;9.466;2023-12-04T07:24:58;97357.22;;;1.76;63.03
12973;BME280;6551;51.056;9.466;2023-12-04T07:27:24;97353.41;;;1.78;62.55
12973;BME280;6551;51.056;9.466;2023-12-04T07:29:50;97355.72;;;1.82;62.62
12973;BME280;6551;51.056;9.466;2023-12-04T07:32:16;97359.50;;;1.79;62.96
12973;BME280;6551;51.056;9.466;2023-12-04T07:34:44;97366.69;;;1.85;62.29
12973;BME280;6551;51.056;9.466;2023-12-04T07:37:09;97364.88;;;1.86;62.56
12973;BME280;6551;51.056;9.466;2023-12-04T07:39:35;97363.19;;;1.93;62.23
12973;BME280;6551;51.056;9.466;2023-12-04T07:42:01;97369.75;;;1.97;61.93
12973;BME280;6551;51.056;9.466;2023-12-04T07:44:27;97370.22;;;2.00;61.83
12973;BME280;6551;51.056;9.466;2023-12-04T07:46:53;97357.22;;;2.07;62.25
12973;BME280;6551;51.056;9.466;2023-12-04T07:49:19;97368.31;;;2.17;62.50
12973;BME280;6551;51.056;9.466;2023-12-04T07:51:44;97353.03;;;2.20;62.15
12973;BME280;6551;51.056;9.466;2023-12-04T07:54:10;97352.69;;;2.23;61.93
12973;BME280;6551;51.056;9.466;2023-12-04T07:56:36;97342.38;;;2.22;61.30
12973;BME280;6551;51.056;9.466;2023-12-04T07:59:02;97340.19;;;2.25;61.03
12973;BME280;6551;51.056;9.466;2023-12-04T08:01:28;97352.34;;;2.26;61.54
12973;BME280;6551;51.056;9.466;2023-12-04T08:03:53;97352.69;;;2.23;61.43
12973;BME280;6551;51.056;9.466;2023-12-04T08:06:19;97345.16;;;2.20;61.56
12973;BME280;6551;51.056;9.466;2023-12-04T08:08:45;97348.75;;;2.19;61.53
12973;BME280;6551;51.056;9.466;2023-12-04T08:11:11;97346.53;;;2.08;61.72
12973;BME280;6551;51.056;9.466;2023-12-04T08:13:40;97339.81;;;2.06;61.48
12973;BME280;6551;51.056;9.466;2023-12-04T08:16:13;97335.72;;;2.03;61.85
12973;BME280;6551;51.056;9.466;2023-12-04T08:18:40;97339.72;;;1.99;61.72
12973;BME280;6551;51.056;9.466;2023-12-04T08:21:07;97337.91;;;2.00;61.76
12973;BME280;6551;51.056;9.466;2023-12-04T08:23:33;97341.50;;;1.99;61.92
12973;BME280;6551;51.056;9.466;2023-12-04T08:25:59;97341.41;;;2.15;61.68
12973;BME280;6551;51.056;9.466;2023-12-04T08:28:24;97337.19;;;2.06;61.72
12973;BME280;6551;51.056;9.466;2023-12-04T08:30:50;97339.91;;;2.20;61.85
12973;BME280;6551;51.056;9.466;2023-12-04T08:33:16;97339.38;;;2.25;61.58
12973;BME280;6551;51.056;9.466;2023-12-04T08:35:41;97333.31;;;2.24;61.27
12973;BME280;6551;51.056;9.466;2023-12-04T08:38:07;97324.38;;;2.33;61.26
12973;BME280;6551;51.056;9.466;2023-12-04T08:40:33;97338.94;;;2.44;61.83
12973;BME280;6551;51.056;9.466;2023-12-04T08:42:58;97335.97;;;2.62;61.98
12973;BME280;6551;51.056;9.466;2023-12-04T08:45:24;97331.00;;;2.67;60.54
12973;BME280;6551;51.056;9.466;2023-12-04T08:47:50;97333.00;;;2.65;60.54
12973;BME280;6551;51.056;9.466;2023-12-04T08:50:16;97330.75;;;2.76;59.97
12973;BME280;6551;51.056;9.466;2023-12-04T08:52:42;97322.16;;;2.82;59.52
12973;BME280;6551;51.056;9.466;2023-12-04T08:55:09;97321.97;;;2.69;58.81
12973;BME280;6551;51.056;9.466;2023-12-04T08:57:35;97323.97;;;2.82;59.20
12973;BME280;6551;51.056;9.466;2023-12-04T09:00:01;97321.91;;;2.77;59.04
12973;BME280;6551;51.056;9.466;2023-12-04T09:02:29;97320.59;;;2.73;58.83
12973;BME280;6551;51.056;9.466;2023-12-04T09:04:54;97309.81;;;2.68;57.85
12973;BME280;6551;51.056;9.466;2023-12-04T09:07:20;97306.25;;;2.61;57.65
12973;BME280;6551;51.056;9.466;2023-12-04T09:09:46;97307.47;;;2.73;57.94
12973;BME280;6551;51.056;9.466;2023-12-04T09:12:11;97297.69;;;2.82;57.72
12973;BME280;6551;51.056;9.466;2023-12-04T09:14:37;97303.69;;;2.90;57.91
12973;BME280;6551;51.056;9.466;2023-12-04T09:17:04;97294.72;;;2.85;57.67
12973;BME280;6551;51.056;9.466;2023-12-04T09:19:30;97298.50;;;2.82;57.99
12973;BME280;6551;51.056;9.466;2023-12-04T09:21:56;97282.81;;;2.89;58.90
12973;BME280;6551;51.056;9.466;2023-12-04T09:24:23;97292.19;;;3.06;59.25
12973;BME280;6551;51.056;9.466;2023-12-04T09:26:49;97283.66;;;3.04;58.75
12973;BME280;6551;51.056;9.466;2023-12-04T09:29:15;97287.56;;;3.08;58.77
12973;BME280;6551;51.056;9.466;2023-12-04T09:31:42;97282.13;;;3.10;59.28
12973;BME280;6551;51.056;9.466;2023-12-04T09:34:08;97286.75;;;3.08;59.34
12973;BME280;6551;51.056;9.466;2023-12-04T09:36:34;97284.75;;;3.10;59.23
12973;BME280;6551;51.056;9.466;2023-12-04T09:39:00;97277.38;;;3.20;58.87
12973;BME280;6551;51.056;9.466;2023-12-04T09:41:26;97274.75;;;3.34;58.88
12973;BME280;6551;51.056;9.466;2023-12-04T09:43:53;97273.41;;;3.38;58.66
12973;BME280;6551;51.056;9.466;2023-12-04T09:46:19;97259.78;;;3.35;58.79
12973;BME280;6551;51.056;9.466;2023-12-04T09:48:45;97252.47;;;3.30;59.02
12973;BME280;6551;51.056;9.466;2023-12-04T09:51:12;97253.72;;;3.34;58.87
12973;BME280;6551;51.056;9.466;2023-12-04T09:53:40;97244.28;;;3.40;59.29
12973;BME280;6551;51.056;9.466;2023-12-04T09:56:08;97241.97;;;3.51;58.91
12973;BME280;6551;51.056;9.466;2023-12-04T09:58:38;97236.50;;;3.68;59.05
12973;BME280;6551;51.056;9.466;2023-12-04T10:01:06;97232.13;;;3.75;59.20
12973;BME280;6551;51.056;9.466;2023-12-04T10:03:33;97233.44;;;3.85;58.97
12973;BME280;6551;51.056;9.466;2023-12-04T10:05:59;97226.50;;;3.99;58.35
12973;BME280;6551;51.056;9.466;2023-12-04T10:08:25;97216.00;;;4.05;57.25
12973;BME280;6551;51.056;9.466;2023-12-04T10:10:51;97222.91;;;4.06;57.22
12973;BME280;6551;51.056;9.466;2023-12-04T10:13:17;97222.84;;;4.21;56.88
12973;BME280;6551;51.056;9.466;2023-12-04T10:15:50;97216.84;;;4.27;56.32
12973;BME280;6551;51.056;9.466;2023-12-04T10:18:30;97201.34;;;4.18;55.59
12973;BME280;6551;51.056;9.466;2023-12-04T10:20:58;97191.88;;;4.02;56.09
12973;BME280;6551;51.056;9.466;2023-12-04T10:23:38;97187.97;;;3.98;56.33
12973;BME280;6551;51.056;9.466;2023-12-04T10:26:05;97181.09;;;3.97;56.16
12973;BME280;6551;51.056;9.466;2023-12-04T10:28:32;97181.09;;;3.97;55.53
12973;BME280;6551;51.056;9.466;2023-12-04T10:30:58;97167.56;;;3.79;56.15
12973;BME280;6551;51.056;9.466;2023-12-04T10:33:25;97168.53;;;3.78;56.27
12973;BME280;6551;51.056;9.466;2023-12-04T10:35:54;97161.72;;;3.62;56.44
12973;BME280;6551;51.056;9.466;2023-12-04T10:38:20;97152.00;;;3.63;56.55
12973;BME280;6551;51.056;9.466;2023-12-04T10:40:46;97145.56;;;3.65;56.94
12973;BME280;6551;51.056;9.466;2023-12-04T10:43:16;97154.56;;;3.56;56.75
12973;BME280;6551;51.056;9.466;2023-12-04T10:45:44;97148.69;;;3.54;56.89
12973;BME280;6551;51.056;9.466;2023-12-04T10:48:12;97136.50;;;3.53;57.10
12973;BME280;6551;51.056;9.466;2023-12-04T10:50:40;97133.63;;;3.48;57.18
12973;BME280;6551;51.056;9.466;2023-12-04T10:53:11;97126.34;;;3.50;57.44
12973;BME280;6551;51.056;9.466;2023-12-04T10:55:39;97125.94;;;3.46;57.09
12973;BME280;6551;51.056;9.466;2023-12-04T10:58:10;97135.97;;;3.58;57.54
12973;BME280;6551;51.056;9.466;2023-12-04T11:00:43;97123.16;;;3.76;57.52
12973;BME280;6551;51.056;9.466;2023-12-04T11:03:16;97131.28;;;3.74;57.20
12973;BME280;6551;51.056;9.466;2023-12-04T11:05:44;97121.28;;;3.91;57.00
12973;BME280;6551;51.056;9.466;2023-12-04T11:08:14;97116.69;;;3.99;56.55
12973;BME280;6551;51.056;9.466;2023-12-04T11:13:31;97104.22;;;4.14;56.06
12973;BME280;6551;51.056;9.466;2023-12-04T11:19:13;97095.88;;;4.39;56.02
12973;BME280;6551;51.056;9.466;2023-12-04T11:21:45;97098.00;;;4.56;56.49
12973;BME280;6551;51.056;9.466;2023-12-04T11:24:12;97080.59;;;4.62;55.56
12973;BME280;6551;51.056;9.466;2023-12-04T11:26:40;97079.38;;;4.64;55.17
12973;BME280;6551;51.056;9.466;2023-12-04T11:29:07;97083.25;;;4.62;55.25
12973;BME280;6551;51.056;9.466;2023-12-04T11:31:36;97075.31;;;4.62;54.73
12973;BME280;6551;51.056;9.466;2023-12-04T11:34:03;97080.38;;;4.57;54.82
12973;BME280;6551;51.056;9.466;2023-12-04T11:36:29;97072.91;;;4.60;55.06
12973;BME280;6551;51.056;9.466;2023-12-04T11:38:55;97073.69;;;4.61;54.98
12973;BME280;6551;51.056;9.466;2023-12-04T11:41:23;97072.03;;;4.53;54.58
12973;BME280;6551;51.056;9.466;2023-12-04T11:43:51;97060.34;;;4.62;54.18
12973;BME280;6551;51.056;9.466;2023-12-04T11:46:24;97055.28;;;4.67;54.23
12973;BME280;6551;51.056;9.466;2023-12-04T11:48:56;97052.84;;;4.66;53.71
12973;BME280;6551;51.056;9.466;2023-12-04T11:54:17;97043.72;;;4.68;54.51
12973;BME280;6551;51.056;9.466;2023-12-04T11:59:25;97039.72;;;4.79;54.17
12973;BME280;6551;51.056;9.466;2023-12-04T12:01:55;97037.31;;;4.91;54.14
12973;BME280;6551;51.056;9.466;2023-12-04T12:04:25;97032.22;;;4.89;54.10
12973;BME280;6551;51.056;9.466;2023-12-04T12:06:52;97020.91;;;5.08;53.88
12973;BME280;6551;51.056;9.466;2023-12-04T12:09:18;97021.94;;;5.14;53.87
12973;BME280;6551;51.056;9.466;2023-12-04T12:11:44;97015.66;;;5.15;53.66
12973;BME280;6551;51.056;9.466;2023-12-04T12:14:10;97018.09;;;5.23;53.46
12973;BME280;6551;51.056;9.466;2023-12-04T12:16:36;97015.06;;;5.39;53.47
12973;BME280;6551;51.056;9.466;2023-12-04T12:19:02;97012.66;;;5.44;52.89
12973;BME280;6551;51.056;9.466;2023-12-04T12:21:28;97008.41;;;5.50;52.90
12973;BME280;6551;51.056;9.466;2023-12-04T12:23:54;97003.69;;;5.58;52.68
12973;BME280;6551;51.056;9.466;2023-12-04T12:26:20;97005.75;;;5.63;52.29
12973;BME280;6551;51.056;9.466;2023-12-04T12:28:46;96995.75;;;5.78;53.17
12973;BME280;6551;51.056;9.466;2023-12-04T12:31:11;96990.72;;;5.96;52.22
12973;BME280;6551;51.056;9.466;2023-12-04T12:33:37;96985.19;;;6.04;52.53
12973;BME280;6551;51.056;9.466;2023-12-04T12:36:04;96975.22;;;6.13;51.69
12973;BME280;6551;51.056;9.466;2023-12-04T12:38:30;96966.88;;;6.16;51.65
12973;BME280;6551;51.056;9.466;2023-12-04T12:41:06;96957.91;;;6.17;52.71
12973;BME280;6551;51.056;9.466;2023-12-04T12:43:33;96944.97;;;6.02;53.11
12973;BME280;6551;51.056;9.466;2023-12-04T12:45:59;96946.03;;;5.88;52.89
12973;BME280;6551;51.056;9.466;2023-12-04T12:48:27;96955.75;;;5.81;53.00
12973;BME280;6551;51.056;9.466;2023-12-04T12:50:54;96952.50;;;5.79;53.02
12973;BME280;6551;51.056;9.466;2023-12-04T12:53:20;96945.41;;;5.79;53.20
12973;BME280;6551;51.056;9.466;2023-12-04T12:55:47;96945.59;;;5.78;53.01
12973;BME280;6551;51.056;9.466;2023-12-04T12:58:14;96933.00;;;5.73;52.27
12973;BME280;6551;51.056;9.466;2023-12-04T13:00:43;96930.78;;;5.64;52.48
12973;BME280;6551;51.056;9.466;2023-12-04T13:03:16;96938.50;;;5.72;52.00
12973;BME280;6551;51.056;9.466;2023-12-04T13:05:42;96930.00;;;5.57;53.04
12973;BME280;6551;51.056;9.466;2023-12-04T13:08:08;96933.25;;;5.52;52.81
12973;BME280;6551;51.056;9.466;2023-12-04T13:10:35;96918.00;;;5.48;53.37
12973;BME280;6551;51.056;9.466;2023-12-04T13:13:00;96904.22;;;5.32;53.89
12973;BME280;6551;51.056;9.466;2023-12-04T13:15:26;96898.53;;;5.29;54.52
12973;BME280;6551;51.056;9.466;2023-12-04T13:17:52;96890.63;;;5.09;55.72
12973;BME280;6551;51.056;9.466;2023-12-04T13:20:18;96893.28;;;4.96;55.28
12973;BME280;6551;51.056;9.466;2023-12-04T13:22:44;96889.59;;;4.78;56.33
12973;BME280;6551;51.056;9.466;2023-12-04T13:25:10;96882.69;;;4.70;56.42
12973;BME280;6551;51.056;9.466;2023-12-04T13:27:39;96878.59;;;4.61;56.70
12973;BME280;6551;51.056;9.466;2023-12-04T13:30:07;96879.00;;;4.51;57.34